sensor_id;sensor_type;location;lat;lon;timestamp;P1;durP1;ratioP1;P2;durP2;ratioP2
5052;SDS011;2545;50.892;5.740;2022-12-07T00:01:28;26.43;;;16.20;;
5052;SDS011;2545;50.892;5.740;2022-12-07T00:03:55;30.33;;;16.07;;
5052;SDS011;2545;50.892;5.740;2022-12-07T00:06:25;27.53;;;15.30;;
5052;SDS011;2545;50.892;5.740;2022-12-07T00:08:51;29.33;;;16.13;;
5052;SDS011;2545;50.892;5.740;2022-12-07T00:11:18;35.03;;;16.40;;
5052;SDS011;2545;50.892;5.740;2022-12-07T00:13:45;24.90;;;15.70;;
5052;SDS011;2545;50.892;5.740;2022-12-07T00:16:14;24.60;;;15.70;;
5052;SDS011;2545;50.892;5.740;2022-12-07T00:18:41;29.73;;;17.00;;
5052;SDS011;2545;50.892;5.740;2022-12-07T00:21:14;24.43;;;14.83;;
5052;SDS011;2545;50.892;5.740;2022-12-07T00:23:44;26.83;;;14.90;;
5052;SDS011;2545;50.892;5.740;2022-12-07T00:26:14;28.63;;;17.27;;
5052;SDS011;2545;50.892;5.740;2022-12-07T00:28:44;33.00;;;15.40;;
5052;SDS011;2545;50.892;5.740;2022-12-07T00:31:11;28.50;;;17.67;;
5052;SDS011;2545;50.892;5.740;2022-12-07T00:33:38;24.10;;;16.93;;
5052;SDS011;2545;50.892;5.740;2022-12-07T00:36:09;23.87;;;17.17;;
5052;SDS011;2545;50.892;5.740;2022-12-07T00:38:36;34.60;;;17.90;;
5052;SDS011;2545;50.892;5.740;2022-12-07T00:41:03;28.03;;;17.10;;
5052;SDS011;2545;50.892;5.740;2022-12-07T00:43:31;26.63;;;16.23;;
5052;SDS011;2545;50.892;5.740;2022-12-07T00:45:57;34.30;;;18.47;;
5052;SDS011;2545;50.892;5.740;2022-12-07T00:48:23;27.13;;;17.90;;
5052;SDS011;2545;50.892;5.740;2022-12-07T00:50:49;31.43;;;18.03;;
5052;SDS011;2545;50.892;5.740;2022-12-07T00:53:15;31.73;;;17.00;;
5052;SDS011;2545;50.892;5.740;2022-12-07T00:55:41;32.00;;;18.20;;
5052;SDS011;2545;50.892;5.740;2022-12-07T00:58:06;27.20;;;17.40;;
5052;SDS011;2545;50.892;5.740;2022-12-07T01:00:32;27.33;;;16.97;;
5052;SDS011;2545;50.892;5.740;2022-12-07T01:02:58;35.87;;;18.17;;
5052;SDS011;2545;50.892;5.740;2022-12-07T01:05:24;25.90;;;17.47;;
5052;SDS011;2545;50.892;5.740;2022-12-07T01:07:49;31.60;;;17.00;;
5052;SDS011;2545;50.892;5.740;2022-12-07T01:10:14;23.40;;;16.90;;
5052;SDS011;2545;50.892;5.740;2022-12-07T01:12:40;31.90;;;17.93;;
5052;SDS011;2545;50.892;5.740;2022-12-07T01:15:06;29.40;;;16.13;;
5052;SDS011;2545;50.892;5.740;2022-12-07T01:17:32;27.37;;;17.53;;
5052;SDS011;2545;50.892;5.740;2022-12-07T01:19:57;26.00;;;18.43;;
5052;SDS011;2545;50.892;5.740;2022-12-07T01:22:22;25.63;;;16.37;;
5052;SDS011;2545;50.892;5.740;2022-12-07T01:24:48;28.90;;;17.10;;
5052;SDS011;2545;50.892;5.740;2022-12-07T01:27:13;27.20;;;16.70;;
5052;SDS011;2545;50.892;5.740;2022-12-07T01:29:39;30.10;;;18.00;;
5052;SDS011;2545;50.892;5.740;2022-12-07T01:32:05;28.17;;;16.87;;
5052;SDS011;2545;50.892;5.740;2022-12-07T01:34:30;34.37;;;18.10;;
5052;SDS011;2545;50.892;5.740;2022-12-07T01:36:55;32.40;;;17.57;;
5052;SDS011;2545;50.892;5.740;2022-12-07T01:39:21;29.03;;;18.63;;
5052;SDS011;2545;50.892;5.740;2022-12-07T01:41:46;28.77;;;17.20;;
5052;SDS011;2545;50.892;5.740;2022-12-07T01:44:16;42.90;;;18.70;;
5052;SDS011;2545;50.892;5.740;2022-12-07T01:46:52;32.43;;;18.57;;
5052;SDS011;2545;50.892;5.740;2022-12-07T01:49:33;28.53;;;18.20;;
5052;SDS011;2545;50.892;5.740;2022-12-07T01:52:13;41.17;;;19.07;;
5052;SDS011;2545;50.892;5.740;2022-12-07T01:54:46;28.03;;;18.10;;
5052;SDS011;2545;50.892;5.740;2022-12-07T01:57:14;32.20;;;18.80;;
5052;SDS011;2545;50.892;5.740;2022-12-07T01:59:42;37.43;;;17.60;;
5052;SDS011;2545;50.892;5.740;2022-12-07T02:02:10;31.37;;;18.67;;
5052;SDS011;2545;50.892;5.740;2022-12-07T02:04:42;24.60;;;16.53;;
5052;SDS011;2545;50.892;5.740;2022-12-07T02:07:08;32.60;;;18.57;;
5052;SDS011;2545;50.892;5.740;2022-12-07T02:09:34;29.73;;;18.97;;
5052;SDS011;2545;50.892;5.740;2022-12-07T02:11:59;35.17;;;19.70;;
5052;SDS011;2545;50.892;5.740;2022-12-07T02:14:24;35.33;;;19.63;;
5052;SDS011;2545;50.892;5.740;2022-12-07T02:22:29;30.50;;;18.50;;
5052;SDS011;2545;50.892;5.740;2022-12-07T02:25:28;30.23;;;19.57;;
5052;SDS011;2545;50.892;5.740;2022-12-07T02:28:07;29.63;;;18.57;;
5052;SDS011;2545;50.892;5.740;2022-12-07T02:30:51;37.73;;;19.70;;
5052;SDS011;2545;50.892;5.740;2022-12-07T02:33:23;35.10;;;18.93;;
5052;SDS011;2545;50.892;5.740;2022-12-07T02:35:56;33.33;;;20.80;;
5052;SDS011;2545;50.892;5.740;2022-12-07T02:38:38;37.10;;;19.10;;
5052;SDS011;2545;50.892;5.740;2022-12-07T02:41:12;41.50;;;19.30;;
5052;SDS011;2545;50.892;5.740;2022-12-07T02:43:45;34.57;;;19.57;;
5052;SDS011;2545;50.892;5.740;2022-12-07T02:46:36;45.33;;;19.03;;
5052;SDS011;2545;50.892;5.740;2022-12-07T02:51:59;32.03;;;20.43;;
5052;SDS011;2545;50.892;5.740;2022-12-07T02:54:25;29.70;;;19.23;;
5052;SDS011;2545;50.892;5.740;2022-12-07T02:56:52;33.60;;;19.07;;
5052;SDS011;2545;50.892;5.740;2022-12-07T03:04:45;33.00;;;19.80;;
5052;SDS011;2545;50.892;5.740;2022-12-07T03:07:35;33.60;;;20.03;;
5052;SDS011;2545;50.892;5.740;2022-12-07T03:10:22;31.73;;;20.00;;
5052;SDS011;2545;50.892;5.740;2022-12-07T03:13:06;31.70;;;19.50;;
5052;SDS011;2545;50.892;5.740;2022-12-07T03:15:35;32.57;;;19.73;;
5052;SDS011;2545;50.892;5.740;2022-12-07T03:18:08;33.97;;;20.60;;
5052;SDS011;2545;50.892;5.740;2022-12-07T03:20:37;34.20;;;19.47;;
5052;SDS011;2545;50.892;5.740;2022-12-07T03:23:06;41.33;;;19.27;;
5052;SDS011;2545;50.892;5.740;2022-12-07T03:25:34;39.37;;;21.00;;
5052;SDS011;2545;50.892;5.740;2022-12-07T03:28:05;37.17;;;23.10;;
5052;SDS011;2545;50.892;5.740;2022-12-07T03:31:16;37.60;;;20.13;;
5052;SDS011;2545;50.892;5.740;2022-12-07T03:33:39;34.97;;;19.87;;
5052;SDS011;2545;50.892;5.740;2022-12-07T03:39:03;39.23;;;20.17;;
5052;SDS011;2545;50.892;5.740;2022-12-07T03:41:36;27.30;;;19.17;;
5052;SDS011;2545;50.892;5.740;2022-12-07T03:44:03;37.67;;;20.17;;
5052;SDS011;2545;50.892;5.740;2022-12-07T03:51:57;37.53;;;19.77;;
5052;SDS011;2545;50.892;5.740;2022-12-07T03:57:35;42.70;;;19.30;;
5052;SDS011;2545;50.892;5.740;2022-12-07T04:00:03;32.73;;;20.50;;
5052;SDS011;2545;50.892;5.740;2022-12-07T04:02:31;35.17;;;20.27;;
5052;SDS011;2545;50.892;5.740;2022-12-07T04:04:57;45.83;;;21.50;;
5052;SDS011;2545;50.892;5.740;2022-12-07T04:07:23;37.37;;;20.77;;
5052;SDS011;2545;50.892;5.740;2022-12-07T04:09:49;32.63;;;19.60;;
5052;SDS011;2545;50.892;5.740;2022-12-07T04:12:14;42.60;;;22.07;;
5052;SDS011;2545;50.892;5.740;2022-12-07T04:14:40;36.33;;;20.70;;
5052;SDS011;2545;50.892;5.740;2022-12-07T04:17:05;45.00;;;23.33;;
5052;SDS011;2545;50.892;5.740;2022-12-07T04:19:31;33.13;;;20.37;;
5052;SDS011;2545;50.892;5.740;2022-12-07T04:21:59;31.40;;;19.70;;
5052;SDS011;2545;50.892;5.740;2022-12-07T04:24:26;37.20;;;20.60;;
5052;SDS011;2545;50.892;5.740;2022-12-07T04:26:52;37.90;;;20.97;;
5052;SDS011;2545;50.892;5.740;2022-12-07T04:29:18;41.67;;;22.73;;
5052;SDS011;2545;50.892;5.740;2022-12-07T04:31:43;54.43;;;23.27;;
5052;SDS011;2545;50.892;5.740;2022-12-07T04:34:09;42.40;;;21.97;;
5052;SDS011;2545;50.892;5.740;2022-12-07T04:36:35;45.93;;;22.03;;
5052;SDS011;2545;50.892;5.740;2022-12-07T04:39:01;43.70;;;23.67;;
5052;SDS011;2545;50.892;5.740;2022-12-07T04:41:27;41.87;;;22.50;;
5052;SDS011;2545;50.892;5.740;2022-12-07T04:43:56;45.33;;;23.27;;
5052;SDS011;2545;50.892;5.740;2022-12-07T04:46:24;43.80;;;23.37;;
5052;SDS011;2545;50.892;5.740;2022-12-07T04:48:50;41.83;;;21.97;;
5052;SDS011;2545;50.892;5.740;2022-12-07T04:51:18;43.83;;;23.50;;
5052;SDS011;2545;50.892;5.740;2022-12-07T04:53:45;45.00;;;24.37;;
5052;SDS011;2545;50.892;5.740;2022-12-07T04:56:11;42.60;;;23.57;;
5052;SDS011;2545;50.892;5.740;2022-12-07T04:58:36;43.37;;;24.87;;
5052;SDS011;2545;50.892;5.740;2022-12-07T05:01:02;48.63;;;26.10;;
5052;SDS011;2545;50.892;5.740;2022-12-07T05:03:27;46.70;;;24.17;;
5052;SDS011;2545;50.892;5.740;2022-12-07T05:05:53;38.60;;;23.03;;
5052;SDS011;2545;50.892;5.740;2022-12-07T05:08:18;38.77;;;22.80;;
5052;SDS011;2545;50.892;5.740;2022-12-07T05:10:43;51.00;;;23.00;;
5052;SDS011;2545;50.892;5.740;2022-12-07T05:13:09;35.47;;;22.40;;
5052;SDS011;2545;50.892;5.740;2022-12-07T05:15:34;39.20;;;23.60;;
5052;SDS011;2545;50.892;5.740;2022-12-07T05:17:59;44.23;;;22.93;;
5052;SDS011;2545;50.892;5.740;2022-12-07T05:20:25;44.33;;;23.30;;
5052;SDS011;2545;50.892;5.740;2022-12-07T05:22:51;37.33;;;22.67;;
5052;SDS011;2545;50.892;5.740;2022-12-07T05:25:16;41.80;;;22.70;;
5052;SDS011;2545;50.892;5.740;2022-12-07T05:27:41;37.07;;;22.50;;
5052;SDS011;2545;50.892;5.740;2022-12-07T05:30:07;44.87;;;25.30;;
5052;SDS011;2545;50.892;5.740;2022-12-07T05:32:32;35.73;;;22.23;;
5052;SDS011;2545;50.892;5.740;2022-12-07T05:34:58;46.93;;;23.90;;
5052;SDS011;2545;50.892;5.740;2022-12-07T05:37:23;42.70;;;24.13;;
5052;SDS011;2545;50.892;5.740;2022-12-07T05:39:48;44.80;;;24.70;;
5052;SDS011;2545;50.892;5.740;2022-12-07T05:42:14;46.63;;;24.30;;
5052;SDS011;2545;50.892;5.740;2022-12-07T05:44:40;44.90;;;25.57;;
5052;SDS011;2545;50.892;5.740;2022-12-07T05:47:06;46.90;;;25.07;;
5052;SDS011;2545;50.892;5.740;2022-12-07T05:49:32;50.43;;;26.03;;
5052;SDS011;2545;50.892;5.740;2022-12-07T05:51:58;48.13;;;24.17;;
5052;SDS011;2545;50.892;5.740;2022-12-07T05:54:24;49.93;;;25.37;;
5052;SDS011;2545;50.892;5.740;2022-12-07T05:56:49;42.00;;;24.10;;
5052;SDS011;2545;50.892;5.740;2022-12-07T05:59:15;51.97;;;26.50;;
5052;SDS011;2545;50.892;5.740;2022-12-07T06:04:18;48.63;;;26.17;;
5052;SDS011;2545;50.892;5.740;2022-12-07T06:06:44;52.30;;;25.37;;
5052;SDS011;2545;50.892;5.740;2022-12-07T06:09:10;49.57;;;25.40;;
5052;SDS011;2545;50.892;5.740;2022-12-07T06:11:37;49.13;;;26.03;;
5052;SDS011;2545;50.892;5.740;2022-12-07T06:14:21;47.13;;;24.63;;
5052;SDS011;2545;50.892;5.740;2022-12-07T06:16:47;51.43;;;25.63;;
5052;SDS011;2545;50.892;5.740;2022-12-07T06:19:12;50.67;;;24.40;;
5052;SDS011;2545;50.892;5.740;2022-12-07T06:21:38;56.60;;;25.03;;
5052;SDS011;2545;50.892;5.740;2022-12-07T06:24:03;48.60;;;25.33;;
5052;SDS011;2545;50.892;5.740;2022-12-07T06:26:29;56.43;;;26.70;;
5052;SDS011;2545;50.892;5.740;2022-12-07T06:28:54;51.60;;;25.70;;
5052;SDS011;2545;50.892;5.740;2022-12-07T06:31:19;45.90;;;25.07;;
5052;SDS011;2545;50.892;5.740;2022-12-07T06:33:45;43.03;;;25.00;;
5052;SDS011;2545;50.892;5.740;2022-12-07T06:36:10;40.83;;;24.63;;
5052;SDS011;2545;50.892;5.740;2022-12-07T06:38:36;50.17;;;24.80;;
5052;SDS011;2545;50.892;5.740;2022-12-07T06:41:02;48.07;;;24.87;;
5052;SDS011;2545;50.892;5.740;2022-12-07T06:43:27;41.80;;;23.83;;
5052;SDS011;2545;50.892;5.740;2022-12-07T06:45:53;49.47;;;26.80;;
5052;SDS011;2545;50.892;5.740;2022-12-07T06:48:18;49.13;;;24.63;;
5052;SDS011;2545;50.892;5.740;2022-12-07T06:50:44;45.67;;;23.87;;
5052;SDS011;2545;50.892;5.740;2022-12-07T06:53:10;42.07;;;23.10;;
5052;SDS011;2545;50.892;5.740;2022-12-07T06:55:35;44.63;;;25.30;;
5052;SDS011;2545;50.892;5.740;2022-12-07T06:58:01;44.80;;;25.47;;
5052;SDS011;2545;50.892;5.740;2022-12-07T07:00:27;37.07;;;18.50;;
5052;SDS011;2545;50.892;5.740;2022-12-07T07:02:53;37.67;;;21.93;;
5052;SDS011;2545;50.892;5.740;2022-12-07T07:05:18;40.43;;;22.50;;
5052;SDS011;2545;50.892;5.740;2022-12-07T07:07:43;38.07;;;21.60;;
5052;SDS011;2545;50.892;5.740;2022-12-07T07:10:09;40.43;;;20.97;;
5052;SDS011;2545;50.892;5.740;2022-12-07T07:12:34;45.80;;;21.60;;
5052;SDS011;2545;50.892;5.740;2022-12-07T07:14:59;44.60;;;20.50;;
5052;SDS011;2545;50.892;5.740;2022-12-07T07:17:25;44.53;;;22.77;;
5052;SDS011;2545;50.892;5.740;2022-12-07T07:19:50;54.83;;;23.73;;
5052;SDS011;2545;50.892;5.740;2022-12-07T07:22:15;46.53;;;23.97;;
5052;SDS011;2545;50.892;5.740;2022-12-07T07:24:41;48.90;;;24.17;;
5052;SDS011;2545;50.892;5.740;2022-12-07T07:27:06;51.43;;;24.00;;
5052;SDS011;2545;50.892;5.740;2022-12-07T07:29:31;42.13;;;24.70;;
5052;SDS011;2545;50.892;5.740;2022-12-07T07:31:57;53.93;;;26.13;;
5052;SDS011;2545;50.892;5.740;2022-12-07T07:34:22;51.30;;;25.57;;
5052;SDS011;2545;50.892;5.740;2022-12-07T07:36:47;50.60;;;24.07;;
5052;SDS011;2545;50.892;5.740;2022-12-07T07:39:13;47.63;;;23.40;;
5052;SDS011;2545;50.892;5.740;2022-12-07T07:41:38;44.87;;;25.47;;
5052;SDS011;2545;50.892;5.740;2022-12-07T07:44:03;45.30;;;25.60;;
5052;SDS011;2545;50.892;5.740;2022-12-07T07:46:29;49.37;;;24.87;;
5052;SDS011;2545;50.892;5.740;2022-12-07T07:48:54;47.57;;;25.47;;
5052;SDS011;2545;50.892;5.740;2022-12-07T07:51:19;56.23;;;25.60;;
5052;SDS011;2545;50.892;5.740;2022-12-07T07:53:45;49.40;;;25.63;;
5052;SDS011;2545;50.892;5.740;2022-12-07T07:56:11;68.20;;;27.63;;
5052;SDS011;2545;50.892;5.740;2022-12-07T07:58:36;47.30;;;25.37;;
5052;SDS011;2545;50.892;5.740;2022-12-07T08:01:04;57.50;;;25.47;;
5052;SDS011;2545;50.892;5.740;2022-12-07T08:03:31;53.90;;;25.90;;
5052;SDS011;2545;50.892;5.740;2022-12-07T08:05:56;47.90;;;25.10;;
5052;SDS011;2545;50.892;5.740;2022-12-07T08:08:21;45.20;;;26.27;;
5052;SDS011;2545;50.892;5.740;2022-12-07T08:10:47;43.97;;;24.70;;
5052;SDS011;2545;50.892;5.740;2022-12-07T08:13:13;55.17;;;26.30;;
5052;SDS011;2545;50.892;5.740;2022-12-07T08:15:41;42.40;;;24.60;;
5052;SDS011;2545;50.892;5.740;2022-12-07T08:18:09;45.23;;;24.63;;
5052;SDS011;2545;50.892;5.740;2022-12-07T08:20:35;51.90;;;24.80;;
5052;SDS011;2545;50.892;5.740;2022-12-07T08:23:02;46.53;;;26.50;;
5052;SDS011;2545;50.892;5.740;2022-12-07T08:25:28;45.20;;;25.43;;
5052;SDS011;2545;50.892;5.740;2022-12-07T08:27:53;57.10;;;26.50;;
5052;SDS011;2545;50.892;5.740;2022-12-07T08:30:19;39.73;;;24.10;;
5052;SDS011;2545;50.892;5.740;2022-12-07T08:32:45;47.40;;;25.87;;
5052;SDS011;2545;50.892;5.740;2022-12-07T08:35:12;50.97;;;24.50;;
5052;SDS011;2545;50.892;5.740;2022-12-07T08:37:38;39.53;;;23.73;;
5052;SDS011;2545;50.892;5.740;2022-12-07T08:40:04;45.30;;;26.00;;
5052;SDS011;2545;50.892;5.740;2022-12-07T08:42:30;50.07;;;25.00;;
5052;SDS011;2545;50.892;5.740;2022-12-07T08:45:03;40.93;;;24.30;;
5052;SDS011;2545;50.892;5.740;2022-12-07T08:47:30;40.93;;;23.77;;
5052;SDS011;2545;50.892;5.740;2022-12-07T08:49:55;39.63;;;22.57;;
5052;SDS011;2545;50.892;5.740;2022-12-07T08:52:20;51.70;;;22.37;;
5052;SDS011;2545;50.892;5.740;2022-12-07T08:54:46;34.30;;;22.23;;
5052;SDS011;2545;50.892;5.740;2022-12-07T08:57:12;42.30;;;21.70;;
5052;SDS011;2545;50.892;5.740;2022-12-07T08:59:37;35.07;;;21.53;;
5052;SDS011;2545;50.892;5.740;2022-12-07T09:02:03;43.57;;;23.33;;
5052;SDS011;2545;50.892;5.740;2022-12-07T09:04:30;47.80;;;23.13;;
5052;SDS011;2545;50.892;5.740;2022-12-07T09:06:55;42.73;;;21.70;;
5052;SDS011;2545;50.892;5.740;2022-12-07T09:09:21;41.43;;;22.27;;
5052;SDS011;2545;50.892;5.740;2022-12-07T09:11:46;45.67;;;21.43;;
5052;SDS011;2545;50.892;5.740;2022-12-07T09:14:12;51.63;;;23.50;;
5052;SDS011;2545;50.892;5.740;2022-12-07T09:16:38;42.23;;;20.80;;
5052;SDS011;2545;50.892;5.740;2022-12-07T09:19:03;39.10;;;21.20;;
5052;SDS011;2545;50.892;5.740;2022-12-07T09:21:29;34.63;;;20.40;;
5052;SDS011;2545;50.892;5.740;2022-12-07T09:23:54;46.03;;;22.67;;
5052;SDS011;2545;50.892;5.740;2022-12-07T09:26:19;36.10;;;20.70;;
5052;SDS011;2545;50.892;5.740;2022-12-07T09:28:45;39.23;;;21.17;;
5052;SDS011;2545;50.892;5.740;2022-12-07T09:31:10;33.53;;;19.60;;
5052;SDS011;2545;50.892;5.740;2022-12-07T09:33:35;33.80;;;19.90;;
5052;SDS011;2545;50.892;5.740;2022-12-07T09:36:01;38.87;;;21.13;;
5052;SDS011;2545;50.892;5.740;2022-12-07T09:38:27;38.27;;;19.07;;
5052;SDS011;2545;50.892;5.740;2022-12-07T09:40:54;43.07;;;20.70;;
5052;SDS011;2545;50.892;5.740;2022-12-07T09:43:22;48.47;;;22.37;;
5052;SDS011;2545;50.892;5.740;2022-12-07T09:45:53;33.10;;;21.47;;
5052;SDS011;2545;50.892;5.740;2022-12-07T09:48:21;35.43;;;18.87;;
5052;SDS011;2545;50.892;5.740;2022-12-07T09:50:50;32.50;;;19.70;;
5052;SDS011;2545;50.892;5.740;2022-12-07T09:53:24;37.57;;;19.30;;
5052;SDS011;2545;50.892;5.740;2022-12-07T09:55:52;30.40;;;18.17;;
5052;SDS011;2545;50.892;5.740;2022-12-07T09:58:20;30.40;;;18.50;;
5052;SDS011;2545;50.892;5.740;2022-12-07T10:00:50;34.63;;;18.47;;
5052;SDS011;2545;50.892;5.740;2022-12-07T10:03:18;31.63;;;19.50;;
5052;SDS011;2545;50.892;5.740;2022-12-07T10:05:45;27.77;;;17.00;;
5052;SDS011;2545;50.892;5.740;2022-12-07T10:08:13;34.80;;;18.70;;
5052;SDS011;2545;50.892;5.740;2022-12-07T10:10:40;29.03;;;17.53;;
5052;SDS011;2545;50.892;5.740;2022-12-07T10:13:07;31.83;;;19.07;;
5052;SDS011;2545;50.892;5.740;2022-12-07T10:15:53;32.50;;;20.10;;
5052;SDS011;2545;50.892;5.740;2022-12-07T10:21:02;30.97;;;16.20;;
5052;SDS011;2545;50.892;5.740;2022-12-07T10:23:58;29.40;;;18.97;;
5052;SDS011;2545;50.892;5.740;2022-12-07T10:26:27;40.20;;;18.10;;
5052;SDS011;2545;50.892;5.740;2022-12-07T10:28:55;26.70;;;17.73;;
5052;SDS011;2545;50.892;5.740;2022-12-07T10:31:24;30.47;;;17.90;;
5052;SDS011;2545;50.892;5.740;2022-12-07T10:36:16;28.33;;;17.10;;
5052;SDS011;2545;50.892;5.740;2022-12-07T10:38:53;32.90;;;18.23;;
5052;SDS011;2545;50.892;5.740;2022-12-07T10:41:24;28.10;;;18.40;;
5052;SDS011;2545;50.892;5.740;2022-12-07T10:43:51;28.37;;;16.90;;
5052;SDS011;2545;50.892;5.740;2022-12-07T10:51:55;40.77;;;17.73;;
5052;SDS011;2545;50.892;5.740;2022-12-07T10:57:48;34.57;;;16.60;;
5052;SDS011;2545;50.892;5.740;2022-12-07T11:00:41;26.83;;;16.60;;
5052;SDS011;2545;50.892;5.740;2022-12-07T11:03:25;25.90;;;17.47;;
5052;SDS011;2545;50.892;5.740;2022-12-07T11:06:21;22.20;;;15.13;;
5052;SDS011;2545;50.892;5.740;2022-12-07T11:11:31;29.30;;;15.73;;
5052;SDS011;2545;50.892;5.740;2022-12-07T11:14:03;27.80;;;14.67;;
5052;SDS011;2545;50.892;5.740;2022-12-07T11:22:26;22.50;;;16.23;;
5052;SDS011;2545;50.892;5.740;2022-12-07T11:27:41;20.60;;;12.63;;
5052;SDS011;2545;50.892;5.740;2022-12-07T11:30:21;21.27;;;12.87;;
5052;SDS011;2545;50.892;5.740;2022-12-07T11:38:07;16.50;;;10.43;;
5052;SDS011;2545;50.892;5.740;2022-12-07T11:40:36;16.27;;;8.90;;
5052;SDS011;2545;50.892;5.740;2022-12-07T11:43:18;21.20;;;8.57;;
5052;SDS011;2545;50.892;5.740;2022-12-07T11:45:57;17.80;;;9.00;;
5052;SDS011;2545;50.892;5.740;2022-12-07T11:48:37;18.47;;;8.70;;
5052;SDS011;2545;50.892;5.740;2022-12-07T11:51:09;13.00;;;8.70;;
5052;SDS011;2545;50.892;5.740;2022-12-07T11:54:11;14.00;;;7.40;;
5052;SDS011;2545;50.892;5.740;2022-12-07T11:56:39;13.70;;;8.80;;
5052;SDS011;2545;50.892;5.740;2022-12-07T12:01:51;17.20;;;8.40;;
5052;SDS011;2545;50.892;5.740;2022-12-07T12:04:26;16.80;;;9.70;;
5052;SDS011;2545;50.892;5.740;2022-12-07T12:06:53;18.93;;;9.50;;
5052;SDS011;2545;50.892;5.740;2022-12-07T12:09:21;16.50;;;7.97;;
5052;SDS011;2545;50.892;5.740;2022-12-07T12:17:56;16.77;;;7.83;;
5052;SDS011;2545;50.892;5.740;2022-12-07T12:25:57;11.43;;;7.00;;
5052;SDS011;2545;50.892;5.740;2022-12-07T12:28:39;9.10;;;7.30;;
5052;SDS011;2545;50.892;5.740;2022-12-07T12:33:45;15.80;;;7.30;;
5052;SDS011;2545;50.892;5.740;2022-12-07T12:41:50;12.80;;;9.00;;
5052;SDS011;2545;50.892;5.740;2022-12-07T12:46:57;13.13;;;7.73;;
5052;SDS011;2545;50.892;5.740;2022-12-07T12:54:19;16.37;;;7.67;;
5052;SDS011;2545;50.892;5.740;2022-12-07T12:59:39;13.33;;;7.73;;
5052;SDS011;2545;50.892;5.740;2022-12-07T13:04:53;13.47;;;9.13;;
5052;SDS011;2545;50.892;5.740;2022-12-07T13:12:56;17.73;;;9.80;;
5052;SDS011;2545;50.892;5.740;2022-12-07T13:15:39;16.87;;;7.47;;
5052;SDS011;2545;50.892;5.740;2022-12-07T13:20:53;16.33;;;6.43;;
5052;SDS011;2545;50.892;5.740;2022-12-07T13:24:06;14.17;;;8.60;;
5052;SDS011;2545;50.892;5.740;2022-12-07T13:26:17;12.23;;;6.70;;
5052;SDS011;2545;50.892;5.740;2022-12-07T13:28:48;12.60;;;7.00;;
5052;SDS011;2545;50.892;5.740;2022-12-07T13:42:28;10.20;;;6.13;;
5052;SDS011;2545;50.892;5.740;2022-12-07T13:44:59;14.73;;;5.80;;
5052;SDS011;2545;50.892;5.740;2022-12-07T13:47:31;11.50;;;5.30;;
5052;SDS011;2545;50.892;5.740;2022-12-07T13:52:56;10.13;;;5.47;;
5052;SDS011;2545;50.892;5.740;2022-12-07T13:55:23;8.20;;;4.77;;
5052;SDS011;2545;50.892;5.740;2022-12-07T13:57:52;17.40;;;5.60;;
5052;SDS011;2545;50.892;5.740;2022-12-07T14:00:28;7.50;;;4.80;;
5052;SDS011;2545;50.892;5.740;2022-12-07T14:05:25;12.00;;;4.93;;
5052;SDS011;2545;50.892;5.740;2022-12-07T14:08:00;10.23;;;5.37;;
5052;SDS011;2545;50.892;5.740;2022-12-07T14:10:28;12.33;;;4.50;;
5052;SDS011;2545;50.892;5.740;2022-12-07T14:13:02;21.50;;;4.70;;
5052;SDS011;2545;50.892;5.740;2022-12-07T14:15:49;10.83;;;4.93;;
5052;SDS011;2545;50.892;5.740;2022-12-07T14:23:39;12.97;;;4.80;;
5052;SDS011;2545;50.892;5.740;2022-12-07T14:26:07;9.30;;;5.13;;
5052;SDS011;2545;50.892;5.740;2022-12-07T14:28:36;10.40;;;5.23;;
5052;SDS011;2545;50.892;5.740;2022-12-07T14:31:02;19.30;;;4.80;;
5052;SDS011;2545;50.892;5.740;2022-12-07T14:33:28;8.60;;;4.47;;
5052;SDS011;2545;50.892;5.740;2022-12-07T14:35:55;7.10;;;3.80;;
5052;SDS011;2545;50.892;5.740;2022-12-07T14:38:22;6.00;;;3.80;;
5052;SDS011;2545;50.892;5.740;2022-12-07T14:40:49;7.40;;;3.83;;
5052;SDS011;2545;50.892;5.740;2022-12-07T14:43:15;7.20;;;3.50;;
5052;SDS011;2545;50.892;5.740;2022-12-07T14:45:42;7.63;;;2.87;;
5052;SDS011;2545;50.892;5.740;2022-12-07T14:48:07;7.43;;;3.60;;
5052;SDS011;2545;50.892;5.740;2022-12-07T14:50:37;5.40;;;3.10;;
5052;SDS011;2545;50.892;5.740;2022-12-07T14:53:14;9.37;;;3.47;;
5052;SDS011;2545;50.892;5.740;2022-12-07T14:55:42;5.50;;;3.20;;
5052;SDS011;2545;50.892;5.740;2022-12-07T14:58:11;9.67;;;3.20;;
5052;SDS011;2545;50.892;5.740;2022-12-07T15:00:39;8.47;;;3.53;;
5052;SDS011;2545;50.892;5.740;2022-12-07T15:03:04;11.17;;;4.10;;
5052;SDS011;2545;50.892;5.740;2022-12-07T15:05:29;8.67;;;3.53;;
5052;SDS011;2545;50.892;5.740;2022-12-07T15:07:55;8.00;;;3.30;;
5052;SDS011;2545;50.892;5.740;2022-12-07T15:10:23;7.33;;;3.43;;
5052;SDS011;2545;50.892;5.740;2022-12-07T15:12:58;6.93;;;2.97;;
5052;SDS011;2545;50.892;5.740;2022-12-07T15:15:44;8.90;;;3.50;;
5052;SDS011;2545;50.892;5.740;2022-12-07T15:18:10;13.40;;;3.47;;
5052;SDS011;2545;50.892;5.740;2022-12-07T15:20:36;7.93;;;3.80;;
5052;SDS011;2545;50.892;5.740;2022-12-07T15:23:01;4.90;;;3.03;;
5052;SDS011;2545;50.892;5.740;2022-12-07T15:25:26;7.03;;;3.10;;
5052;SDS011;2545;50.892;5.740;2022-12-07T15:27:52;5.80;;;3.23;;
5052;SDS011;2545;50.892;5.740;2022-12-07T15:30:17;7.50;;;3.17;;
5052;SDS011;2545;50.892;5.740;2022-12-07T15:32:42;5.60;;;2.50;;
5052;SDS011;2545;50.892;5.740;2022-12-07T15:35:08;7.50;;;3.40;;
5052;SDS011;2545;50.892;5.740;2022-12-07T15:37:33;11.83;;;3.10;;
5052;SDS011;2545;50.892;5.740;2022-12-07T15:39:58;6.33;;;2.97;;
5052;SDS011;2545;50.892;5.740;2022-12-07T15:42:24;7.43;;;3.50;;
5052;SDS011;2545;50.892;5.740;2022-12-07T15:44:49;5.43;;;2.97;;
5052;SDS011;2545;50.892;5.740;2022-12-07T15:47:50;5.87;;;3.37;;
5052;SDS011;2545;50.892;5.740;2022-12-07T15:50:15;6.57;;;4.37;;
5052;SDS011;2545;50.892;5.740;2022-12-07T15:52:41;7.67;;;4.90;;
5052;SDS011;2545;50.892;5.740;2022-12-07T15:55:08;10.43;;;4.10;;
5052;SDS011;2545;50.892;5.740;2022-12-07T15:57:35;8.70;;;4.60;;
5052;SDS011;2545;50.892;5.740;2022-12-07T16:00:06;6.07;;;3.97;;
5052;SDS011;2545;50.892;5.740;2022-12-07T16:02:33;13.47;;;3.80;;
5052;SDS011;2545;50.892;5.740;2022-12-07T16:04:58;9.40;;;4.03;;
5052;SDS011;2545;50.892;5.740;2022-12-07T16:07:23;11.03;;;4.17;;
5052;SDS011;2545;50.892;5.740;2022-12-07T16:09:49;8.00;;;4.40;;
5052;SDS011;2545;50.892;5.740;2022-12-07T16:12:14;10.30;;;4.60;;
5052;SDS011;2545;50.892;5.740;2022-12-07T16:14:40;13.97;;;4.93;;
5052;SDS011;2545;50.892;5.740;2022-12-07T16:17:07;12.50;;;4.63;;
5052;SDS011;2545;50.892;5.740;2022-12-07T16:19:32;4.93;;;4.00;;
5052;SDS011;2545;50.892;5.740;2022-12-07T16:21:58;17.43;;;5.50;;
5052;SDS011;2545;50.892;5.740;2022-12-07T16:24:24;13.97;;;4.80;;
5052;SDS011;2545;50.892;5.740;2022-12-07T16:26:50;17.03;;;4.83;;
5052;SDS011;2545;50.892;5.740;2022-12-07T16:29:15;5.80;;;4.53;;
5052;SDS011;2545;50.892;5.740;2022-12-07T16:31:41;8.47;;;5.10;;
5052;SDS011;2545;50.892;5.740;2022-12-07T16:34:07;11.90;;;4.40;;
5052;SDS011;2545;50.892;5.740;2022-12-07T16:36:33;12.87;;;5.10;;
5052;SDS011;2545;50.892;5.740;2022-12-07T16:38:59;9.13;;;4.77;;
5052;SDS011;2545;50.892;5.740;2022-12-07T16:41:24;7.40;;;4.83;;
5052;SDS011;2545;50.892;5.740;2022-12-07T16:43:50;13.40;;;5.97;;
5052;SDS011;2545;50.892;5.740;2022-12-07T16:46:15;9.83;;;5.53;;
5052;SDS011;2545;50.892;5.740;2022-12-07T16:48:41;14.37;;;6.77;;
5052;SDS011;2545;50.892;5.740;2022-12-07T16:51:08;10.10;;;6.27;;
5052;SDS011;2545;50.892;5.740;2022-12-07T16:53:35;13.73;;;6.47;;
5052;SDS011;2545;50.892;5.740;2022-12-07T16:56:02;14.03;;;7.70;;
5052;SDS011;2545;50.892;5.740;2022-12-07T16:58:28;10.70;;;7.63;;
5052;SDS011;2545;50.892;5.740;2022-12-07T17:00:54;9.27;;;6.53;;
5052;SDS011;2545;50.892;5.740;2022-12-07T17:03:19;10.40;;;7.53;;
5052;SDS011;2545;50.892;5.740;2022-12-07T17:05:45;14.60;;;6.73;;